createdAt,value
2016-12-19T00:00:09.487Z,54.46
2016-12-19T00:01:09.471Z,54.56
2016-12-19T00:02:09.456Z,54.36
2016-12-19T00:03:09.446Z,54.27
2016-12-19T00:04:09.420Z,54.36
2016-12-19T00:05:09.406Z,54.27
2016-12-19T00:06:09.390Z,53.98
2016-12-19T00:07:09.368Z,54.36
2016-12-19T00:08:09.349Z,54.56
2016-12-19T00:09:09.366Z,54.46
2016-12-19T00:10:09.326Z,53.88
2016-12-19T00:11:09.303Z,54.65
2016-12-19T00:12:09.291Z,53.5
2016-12-19T00:13:09.271Z,53.5
2016-12-19T00:14:09.256Z,53.69
2016-12-19T00:15:09.242Z,53.78
2016-12-19T00:16:09.221Z,53.5
2016-12-19T00:17:09.208Z,53.78
2016-12-19T00:18:09.197Z,53.98
2016-12-19T00:19:08.883Z,53.5
2016-12-19T00:20:09.166Z,53.78
2016-12-19T00:21:09.139Z,53.59
2016-12-19T00:22:08.819Z,53.98
2016-12-19T00:23:09.106Z,54.17
2016-12-19T00:24:09.093Z,53.98
2016-12-19T00:25:09.078Z,54.65
2016-12-19T00:26:08.745Z,54.08
2016-12-19T00:27:09.046Z,53.78
2016-12-19T00:28:09.029Z,53.59
2016-12-19T00:29:09.009Z,53.69
2016-12-19T00:30:09.000Z,53.88
2016-12-19T00:31:08.975Z,53.59
2016-12-19T00:32:08.964Z,54.56
2016-12-19T00:33:08.943Z,53.69
2016-12-19T00:34:08.926Z,53.5
2016-12-19T00:35:08.910Z,53.88
2016-12-19T00:36:08.895Z,53.78
2016-12-19T00:37:08.562Z,53.59
2016-12-19T00:38:08.860Z,53.78
2016-12-19T00:39:08.843Z,53.5
2016-12-19T00:40:08.829Z,54.65
2016-12-19T00:41:08.815Z,54.56
2016-12-19T00:42:08.798Z,54.08
2016-12-19T00:43:08.781Z,53.78
2016-12-19T00:44:08.765Z,53.78
2016-12-19T00:45:08.748Z,53.98
2016-12-19T00:46:08.729Z,54.08
2016-12-19T00:47:08.712Z,53.88
2016-12-19T00:48:08.702Z,54.34
2016-12-19T00:49:08.684Z,54.36
2016-12-19T00:50:08.662Z,54.46
2016-12-19T00:51:08.645Z,54.36
2016-12-19T00:52:08.629Z,54.36
2016-12-19T00:53:08.620Z,54.46
2016-12-19T00:54:08.599Z,54.43
2016-12-19T00:55:08.578Z,54.56
2016-12-19T00:56:08.563Z,54.56
2016-12-19T00:57:08.549Z,53.96
2016-12-19T00:58:08.535Z,54.46
2016-12-19T00:59:08.515Z,54.27
2016-12-19T01:00:08.498Z,54.43
2016-12-19T01:01:08.485Z,54.24
2016-12-19T01:02:08.465Z,54.34
2016-12-19T01:03:08.448Z,54.34
2016-12-19T01:04:08.441Z,54.43
2016-12-19T01:05:08.414Z,54.34
2016-12-19T01:06:08.399Z,54.34
2016-12-19T01:07:08.386Z,54.34
2016-12-19T01:08:08.366Z,54.34
2016-12-19T01:09:08.353Z,54.43
2016-12-19T01:10:08.332Z,54.53
2016-12-19T01:11:08.316Z,54.34
2016-12-19T01:12:08.299Z,54.05
2016-12-19T01:13:07.972Z,54.24
2016-12-19T01:14:08.271Z,54.24
2016-12-19T01:15:08.249Z,54.05
2016-12-19T01:16:08.232Z,54.05
2016-12-19T01:17:08.218Z,54.34
2016-12-19T01:18:08.204Z,54.34
2016-12-19T01:19:07.876Z,54.24
2016-12-19T01:20:08.167Z,54.43
2016-12-19T01:21:08.156Z,54.34
2016-12-19T01:22:08.136Z,54.14
2016-12-19T01:23:08.142Z,54.43
2016-12-19T01:24:07.789Z,54.53
2016-12-19T01:25:07.767Z,54.34
2016-12-19T01:26:08.068Z,54.43
2016-12-19T01:27:08.057Z,54.82
2016-12-19T01:28:08.034Z,54.72
2016-12-19T01:29:08.022Z,54.72
2016-12-19T01:30:08.002Z,54.63
2016-12-19T01:31:07.988Z,54.34
2016-12-19T01:32:07.681Z,54.91
2016-12-19T01:33:07.949Z,54.72
2016-12-19T01:34:07.932Z,54.82
2016-12-19T01:35:07.608Z,54.91
2016-12-19T01:36:07.903Z,54.82
2016-12-19T01:37:07.572Z,55.01
2016-12-19T01:38:07.872Z,54.91
2016-12-19T01:39:07.852Z,55.01
2016-12-19T01:40:07.881Z,55.01
2016-12-19T01:41:07.820Z,54.82
2016-12-19T01:42:07.801Z,54.82
2016-12-19T01:43:07.787Z,55.59
2016-12-19T01:44:07.768Z,55.3
2016-12-19T01:45:07.751Z,55.3
2016-12-19T01:46:07.732Z,55.3
2016-12-19T01:47:07.410Z,55.4
2016-12-19T01:48:07.703Z,55.3
2016-12-19T01:49:07.690Z,55.4
2016-12-19T01:50:07.677Z,55.4
2016-12-19T01:51:07.655Z,55.68
2016-12-19T01:52:07.333Z,55.49
2016-12-19T01:53:07.619Z,55.68
2016-12-19T01:54:07.606Z,55.68
2016-12-19T01:55:07.273Z,55.68
2016-12-19T01:56:07.574Z,55.59
2016-12-19T01:57:07.560Z,55.59
2016-12-19T01:58:07.540Z,55.59
2016-12-19T01:59:07.519Z,55.4
2016-12-19T02:00:07.511Z,54.91
2016-12-19T02:01:07.485Z,54.91
2016-12-19T02:02:07.473Z,55.01
2016-12-19T02:03:07.137Z,55.11
2016-12-19T02:04:07.122Z,55.11
2016-12-19T02:05:07.110Z,55.2
2016-12-19T02:06:07.083Z,55.2
2016-12-19T02:07:07.386Z,55.3
2016-12-19T02:08:07.375Z,55.2
2016-12-19T02:09:07.350Z,55.2
2016-12-19T02:10:07.344Z,55.59
2016-12-19T02:11:07.321Z,55.68
2016-12-19T02:12:07.308Z,55.59
2016-12-19T02:13:07.287Z,55.88
2016-12-19T02:14:07.271Z,55.68
2016-12-19T02:15:07.254Z,55.78
2016-12-19T02:16:07.235Z,55.49
2016-12-19T02:17:07.220Z,55.59
2016-12-19T02:18:06.887Z,55.68
2016-12-19T02:19:07.191Z,55.98
2016-12-19T02:20:07.172Z,55.98
2016-12-19T02:21:07.155Z,55.98
2016-12-19T02:22:06.821Z,55.68
2016-12-19T02:23:07.121Z,55.59
2016-12-19T02:24:06.785Z,55.78
2016-12-19T02:25:07.084Z,55.88
2016-12-19T02:26:07.069Z,55.68
2016-12-19T02:27:06.740Z,55.88
2016-12-19T02:28:07.052Z,55.49
2016-12-19T02:29:07.019Z,55.98
2016-12-19T02:30:07.010Z,55.68
2016-12-19T02:31:06.985Z,55.49
2016-12-19T02:32:06.970Z,55.59
2016-12-19T02:33:06.956Z,55.78
2016-12-19T02:34:06.937Z,55.49
2016-12-19T02:35:06.920Z,55.78
2016-12-19T02:36:06.902Z,55.4
2016-12-19T02:37:06.569Z,55.49
2016-12-19T02:38:06.872Z,55.3
2016-12-19T02:39:06.853Z,55.3
2016-12-19T02:40:06.834Z,55.59
2016-12-19T02:41:06.502Z,55.49
2016-12-19T02:42:06.806Z,55.78
2016-12-19T02:43:06.786Z,55.98
2016-12-19T02:44:06.769Z,55.88
2016-12-19T02:45:06.752Z,55.98
2016-12-19T02:46:06.740Z,55.88
2016-12-19T02:47:06.719Z,55.78
2016-12-19T02:48:06.700Z,55.68
2016-12-19T02:49:06.685Z,55.59
2016-12-19T02:50:06.666Z,55.78
2016-12-19T02:51:06.654Z,55.78
2016-12-19T02:52:06.635Z,55.78
2016-12-19T02:53:06.618Z,55.68
2016-12-19T02:54:06.286Z,55.59
2016-12-19T02:55:06.582Z,55.68
2016-12-19T02:56:06.576Z,55.68
2016-12-19T02:57:06.549Z,55.68
2016-12-19T02:58:06.532Z,55.78
2016-12-19T02:59:06.517Z,55.4
2016-12-19T03:00:06.187Z,55.68
2016-12-19T03:01:06.482Z,55.49
2016-12-19T03:02:06.467Z,55.3
2016-12-19T03:03:06.448Z,55.59
2016-12-19T03:04:06.116Z,55.2
2016-12-19T03:05:06.101Z,55.46
2016-12-19T03:06:06.398Z,55.49
2016-12-19T03:07:06.381Z,55.37
2016-12-19T03:08:06.367Z,55.49
2016-12-19T03:09:06.353Z,55.27
2016-12-19T03:10:06.336Z,55.3
2016-12-19T03:11:06.314Z,55.18
2016-12-19T03:12:06.297Z,55.37
2016-12-19T03:13:06.280Z,55.18
2016-12-19T03:14:05.948Z,55.46
2016-12-19T03:15:06.247Z,55.46
2016-12-19T03:16:06.234Z,55.66
2016-12-19T03:17:06.213Z,55.66
2016-12-19T03:18:06.202Z,55.37
2016-12-19T03:19:06.180Z,55.18
2016-12-19T03:20:06.165Z,55.27
2016-12-19T03:21:06.149Z,55.08
2016-12-19T03:22:06.129Z,55.08
2016-12-19T03:23:06.112Z,55.56
2016-12-19T03:24:06.100Z,55.66
2016-12-19T03:25:06.083Z,55.46
2016-12-19T03:26:06.062Z,55.66
2016-12-19T03:27:06.048Z,55.56
2016-12-19T03:28:06.031Z,55.46
2016-12-19T03:29:06.012Z,55.56
2016-12-19T03:30:05.999Z,55.66
2016-12-19T03:31:05.669Z,55.27
2016-12-19T03:32:05.962Z,55.56
2016-12-19T03:33:05.947Z,55.08
2016-12-19T03:34:05.612Z,55.56
2016-12-19T03:35:05.910Z,55.66
2016-12-19T03:36:05.893Z,55.76
2016-12-19T03:37:05.876Z,55.46
2016-12-19T03:38:05.861Z,55.46
2016-12-19T03:39:05.845Z,55.46
2016-12-19T03:40:05.827Z,55.27
2016-12-19T03:41:05.813Z,55.27
2016-12-19T03:42:05.476Z,55.08
2016-12-19T03:43:05.783Z,55.56
2016-12-19T03:44:05.759Z,55.46
2016-12-19T03:45:05.429Z,55.66
2016-12-19T03:46:05.727Z,55.46
2016-12-19T03:47:05.709Z,55.18
2016-12-19T03:48:05.696Z,55.56
2016-12-19T03:49:05.675Z,55.18
2016-12-19T03:50:05.658Z,55.46
2016-12-19T03:51:05.639Z,55.56
2016-12-19T03:52:05.629Z,55.18
2016-12-19T03:53:05.608Z,55.66
2016-12-19T03:54:05.593Z,55.66
2016-12-19T03:55:05.578Z,55.18
2016-12-19T03:56:05.557Z,55.18
2016-12-19T03:57:05.230Z,55.66
2016-12-19T03:58:05.527Z,55.94
2016-12-19T03:59:05.505Z,55.18
2016-12-19T04:00:05.182Z,55.08
2016-12-19T04:01:05.157Z,55.27
2016-12-19T04:02:05.139Z,55.18
2016-12-19T04:03:05.441Z,54.89
2016-12-19T04:04:05.427Z,55.66
2016-12-19T04:05:05.414Z,55.27
2016-12-19T04:06:05.074Z,55.27
2016-12-19T04:07:05.369Z,55.18
2016-12-19T04:08:05.356Z,55.27
2016-12-19T04:09:05.021Z,55.56
2016-12-19T04:10:05.322Z,55.66
2016-12-19T04:11:05.305Z,55.27
2016-12-19T04:12:04.975Z,55.56
2016-12-19T04:13:05.272Z,55.66
2016-12-19T04:14:05.261Z,55.66
2016-12-19T04:15:05.236Z,55.66
2016-12-19T04:16:05.220Z,55.37
2016-12-19T04:17:04.891Z,55.66
2016-12-19T04:18:05.188Z,55.66
2016-12-19T04:19:05.169Z,55.56
2016-12-19T04:20:04.838Z,55.56
2016-12-19T04:21:05.136Z,55.66
2016-12-19T04:22:05.117Z,55.85
2016-12-19T04:23:05.100Z,55.66
2016-12-19T04:24:05.083Z,55.37
2016-12-19T04:25:05.066Z,55.66
2016-12-19T04:26:04.736Z,55.66
2016-12-19T04:27:05.041Z,55.18
2016-12-19T04:28:05.018Z,55.56
2016-12-19T04:29:05.005Z,55.66
2016-12-19T04:30:04.986Z,55.56
2016-12-19T04:31:04.968Z,55.46
2016-12-19T04:32:04.947Z,55.46
2016-12-19T04:33:04.617Z,55.66
2016-12-19T04:34:04.915Z,55.08
2016-12-19T04:35:04.584Z,55.46
2016-12-19T04:36:04.882Z,55.18
2016-12-19T04:37:04.865Z,55.27
2016-12-19T04:38:04.850Z,55.56
2016-12-19T04:39:04.830Z,55.56
2016-12-19T04:40:04.822Z,55.18
2016-12-19T04:41:04.798Z,55.37
2016-12-19T04:42:04.780Z,55.56
2016-12-19T04:43:04.452Z,55.27
2016-12-19T04:44:04.744Z,55.18
2016-12-19T04:45:04.729Z,55.66
2016-12-19T04:46:04.398Z,55.27
2016-12-19T04:47:04.693Z,55.56
2016-12-19T04:48:04.676Z,55.18
2016-12-19T04:49:04.660Z,55.66
2016-12-19T04:50:04.643Z,55.18
2016-12-19T04:51:04.630Z,55.56
2016-12-19T04:52:04.295Z,55.46
2016-12-19T04:53:04.602Z,55.27
2016-12-19T04:54:04.578Z,55.56
2016-12-19T04:55:04.559Z,55.66
2016-12-19T04:56:04.228Z,55.27
2016-12-19T04:57:04.529Z,55.56
2016-12-19T04:58:04.508Z,55.66
2016-12-19T04:59:04.178Z,55.76
2016-12-19T05:00:04.475Z,55.85
2016-12-19T05:01:04.144Z,55.76
2016-12-19T05:02:04.445Z,55.76
2016-12-19T05:03:04.110Z,55.46
2016-12-19T05:04:04.410Z,55.66
2016-12-19T05:05:04.391Z,55.66
2016-12-19T05:06:04.373Z,55.56
2016-12-19T05:07:04.359Z,55.66
2016-12-19T05:08:04.339Z,55.56
2016-12-19T05:09:04.008Z,55.66
2016-12-19T05:10:04.310Z,55.37
2016-12-19T05:11:04.288Z,55.18
2016-12-19T05:12:03.959Z,54.72
2016-12-19T05:13:03.939Z,54.43
2016-12-19T05:14:04.240Z,54.63
2016-12-19T05:15:04.221Z,54.63
2016-12-19T05:16:04.204Z,54.43
2016-12-19T05:17:04.187Z,54.14
2016-12-19T05:18:04.175Z,53.96
2016-12-19T05:19:04.156Z,54.27
2016-12-19T05:20:04.146Z,54.46
2016-12-19T05:21:03.806Z,54.53
2016-12-19T05:22:04.103Z,54.46
2016-12-19T05:23:03.774Z,54.46
2016-12-19T05:24:04.070Z,54.46
2016-12-19T05:25:04.055Z,54.46
2016-12-19T05:26:03.720Z,54.27
2016-12-19T05:27:04.019Z,54.27
2016-12-19T05:28:04.004Z,53.88
2016-12-19T05:29:03.984Z,54.27
2016-12-19T05:30:03.969Z,54.36
2016-12-19T05:31:03.955Z,54.08
2016-12-19T05:32:03.935Z,54.36
2016-12-19T05:33:03.919Z,54.36
2016-12-19T05:34:03.590Z,54.56
2016-12-19T05:35:03.885Z,54.27
2016-12-19T05:36:03.874Z,54.27
2016-12-19T05:37:03.850Z,54.46
2016-12-19T05:38:03.519Z,54.08
2016-12-19T05:39:03.822Z,54.36
2016-12-19T05:40:03.493Z,54.27
2016-12-19T05:41:03.470Z,54.17
2016-12-19T05:42:03.452Z,54.36
2016-12-19T05:43:03.753Z,54.17
2016-12-19T05:44:03.738Z,54.46
2016-12-19T05:45:03.719Z,54.46
2016-12-19T05:46:03.702Z,54.65
2016-12-19T05:47:03.694Z,54.56
2016-12-19T05:48:03.357Z,54.65
2016-12-19T05:49:03.334Z,54.36
2016-12-19T05:50:03.321Z,54.75
2016-12-19T05:51:03.617Z,54.94
2016-12-19T05:52:03.288Z,54.85
2016-12-19T05:53:03.583Z,54.85
2016-12-19T05:54:03.571Z,54.56
2016-12-19T05:55:03.550Z,54.85
2016-12-19T05:56:03.535Z,54.46
2016-12-19T05:57:03.517Z,54.56
2016-12-19T05:58:03.191Z,54.36
2016-12-19T05:59:03.479Z,54.56
2016-12-19T06:00:03.468Z,54.85
2016-12-19T06:01:03.450Z,54.65
2016-12-19T06:02:03.439Z,54.46
2016-12-19T06:03:03.424Z,54.36
2016-12-19T06:04:03.087Z,54.46
2016-12-19T06:05:03.397Z,54.08
2016-12-19T06:06:03.053Z,54.17
2016-12-19T06:07:03.356Z,54.27
2016-12-19T06:08:03.019Z,54.27
2016-12-19T06:09:03.318Z,54.46
2016-12-19T06:10:03.299Z,54.27
2016-12-19T06:11:03.287Z,53.5
2016-12-19T06:12:02.952Z,52.73
2016-12-19T06:13:03.253Z,53.11
2016-12-19T06:14:03.240Z,51.67
2016-12-19T06:15:03.218Z,51.29
2016-12-19T06:16:03.199Z,51.09
2016-12-19T06:17:02.871Z,50.51
2016-12-19T06:18:03.168Z,50.2
2016-12-19T06:19:03.155Z,50.42
2016-12-19T06:20:02.822Z,51.45
2016-12-19T06:21:02.805Z,52.06
2016-12-19T06:22:03.104Z,51.96
2016-12-19T06:23:02.772Z,50.99
2016-12-19T06:24:03.074Z,51.86
2016-12-19T06:25:03.060Z,51.86
2016-12-19T06:26:03.038Z,51.96
2016-12-19T06:27:03.019Z,51.96
2016-12-19T06:28:02.690Z,51.67
2016-12-19T06:29:02.985Z,51.96
2016-12-19T06:30:02.972Z,51.96
2016-12-19T06:31:02.642Z,51.76
2016-12-19T06:32:02.951Z,51.86
2016-12-19T06:33:02.922Z,52.15
2016-12-19T06:34:02.909Z,51.86
2016-12-19T06:35:02.894Z,52.15
2016-12-19T06:36:02.872Z,52.15
2016-12-19T06:37:02.865Z,52.25
2016-12-19T06:38:02.838Z,52.34
2016-12-19T06:39:02.823Z,52.25
2016-12-19T06:40:02.491Z,52.06
2016-12-19T06:41:02.788Z,52.15
2016-12-19T06:42:02.775Z,52.25
2016-12-19T06:43:02.441Z,52.25
2016-12-19T06:44:02.738Z,52.25
2016-12-19T06:45:02.727Z,52.25
2016-12-19T06:46:02.708Z,52.34
2016-12-19T06:47:02.693Z,52.18
2016-12-19T06:48:02.676Z,52.15
2016-12-19T06:49:02.658Z,52.08
2016-12-19T06:50:02.643Z,52.34
2016-12-19T06:51:02.624Z,52.34
2016-12-19T06:52:02.609Z,52.06
2016-12-19T06:53:02.594Z,52.15
2016-12-19T06:54:02.260Z,52.15
2016-12-19T06:55:02.561Z,52.34
2016-12-19T06:56:02.546Z,52.06
2016-12-19T06:57:02.531Z,52.06
2016-12-19T06:58:02.514Z,52.25
2016-12-19T06:59:02.492Z,52.15
2016-12-19T07:00:02.483Z,52.08
2016-12-19T07:01:02.466Z,52.27
2016-12-19T07:02:02.445Z,52.27
2016-12-19T07:03:02.431Z,52.15
2016-12-19T07:04:02.102Z,52.34
2016-12-19T07:05:02.085Z,52.15
2016-12-19T07:06:02.390Z,52.63
2016-12-19T07:07:02.362Z,52.34
2016-12-19T07:08:02.347Z,52.37
2016-12-19T07:09:02.331Z,52.34
2016-12-19T07:10:02.001Z,52.34
2016-12-19T07:11:02.296Z,52.18
2016-12-19T07:12:01.991Z,52.18
2016-12-19T07:13:02.261Z,52.27
2016-12-19T07:14:01.932Z,51.98
2016-12-19T07:15:02.235Z,52.27
2016-12-19T07:16:02.218Z,52.27
2016-12-19T07:17:02.205Z,52.18
2016-12-19T07:18:02.184Z,52.08
2016-12-19T07:19:02.163Z,52.18
2016-12-19T07:20:02.160Z,52.18
2016-12-19T07:21:02.136Z,52.47
2016-12-19T07:22:02.117Z,52.27
2016-12-19T07:23:02.104Z,52.37
2016-12-19T07:24:02.084Z,52.37
2016-12-19T07:25:02.074Z,52.18
2016-12-19T07:26:01.736Z,52.08
2016-12-19T07:27:01.723Z,52.37
2016-12-19T07:28:02.017Z,52.27
2016-12-19T07:29:02.000Z,52.37
2016-12-19T07:30:01.987Z,52.08
2016-12-19T07:31:01.968Z,52.27
2016-12-19T07:32:01.951Z,52.75
2016-12-19T07:33:01.935Z,52.75
2016-12-19T07:34:01.925Z,52.75
2016-12-19T07:35:01.590Z,52.47
2016-12-19T07:36:01.572Z,53.05
2016-12-19T07:37:01.870Z,52.85
2016-12-19T07:38:01.543Z,52.95
2016-12-19T07:39:01.522Z,52.95
2016-12-19T07:40:01.821Z,53.05
2016-12-19T07:41:01.810Z,52.47
2016-12-19T07:42:01.791Z,52.47
2016-12-19T07:43:01.779Z,52.27
2016-12-19T07:44:01.756Z,52.37
2016-12-19T07:45:01.741Z,52.66
2016-12-19T07:46:01.722Z,52.08
2016-12-19T07:47:01.708Z,52.85
2016-12-19T07:48:01.379Z,52.18
2016-12-19T07:49:01.360Z,52.27
2016-12-19T07:50:01.346Z,52.18
2016-12-19T07:51:01.646Z,52.27
2016-12-19T07:52:01.659Z,52.95
2016-12-19T07:53:01.610Z,52.08
2016-12-19T07:54:01.597Z,52.47
2016-12-19T07:55:01.575Z,53.14
2016-12-19T07:56:01.562Z,52.66
2016-12-19T07:57:01.544Z,53.05
2016-12-19T07:58:01.532Z,52.18
2016-12-19T07:59:01.512Z,52.18
2016-12-19T08:00:01.189Z,52.37
2016-12-19T08:01:01.479Z,52.27
2016-12-19T08:02:01.463Z,52.37
2016-12-19T08:03:01.451Z,52.27
2016-12-19T08:04:01.115Z,52.66
2016-12-19T08:05:01.413Z,52.18
2016-12-19T08:06:01.400Z,52.27
2016-12-19T08:07:01.385Z,52.47
2016-12-19T08:08:01.367Z,52.27
2016-12-19T08:09:01.353Z,52.18
2016-12-19T08:10:01.337Z,52.37
2016-12-19T08:11:01.319Z,52.18
2016-12-19T08:12:00.986Z,52.18
2016-12-19T08:13:00.969Z,52.27
2016-12-19T08:14:01.272Z,51.98
2016-12-19T08:15:00.939Z,52.37
2016-12-19T08:16:01.239Z,51.98
2016-12-19T08:17:01.225Z,52.08
2016-12-19T08:18:01.205Z,52.08
2016-12-19T08:19:01.190Z,52.56
2016-12-19T08:20:01.175Z,52.56
2016-12-19T08:21:01.166Z,52.27
2016-12-19T08:22:00.826Z,52.75
2016-12-19T08:23:01.129Z,52.75
2016-12-19T08:24:01.113Z,49.99
2016-12-19T08:25:01.091Z,48.49
2016-12-19T08:26:01.079Z,49.99
2016-12-19T08:27:01.061Z,51.23
2016-12-19T08:28:01.045Z,50.56
2016-12-19T08:29:01.030Z,49.72
2016-12-19T08:30:01.008Z,49.72
2016-12-19T08:31:00.988Z,50.68
2016-12-19T08:32:00.976Z,50.51
2016-12-19T08:33:00.957Z,50.51
2016-12-19T08:34:00.952Z,50.51
2016-12-19T08:35:00.929Z,50.61
2016-12-19T08:36:00.910Z,50.71
2016-12-19T08:37:00.892Z,50.71
2016-12-19T08:38:00.879Z,51.09
2016-12-19T08:39:00.862Z,50.73
2016-12-19T08:40:00.847Z,51.02
2016-12-19T08:41:00.831Z,50.54
2016-12-19T08:42:00.814Z,50.73
2016-12-19T08:43:00.799Z,50.93
2016-12-19T08:44:00.466Z,50.73
2016-12-19T08:45:00.771Z,50.73
2016-12-19T08:46:00.750Z,50.73
2016-12-19T08:47:00.738Z,50.54
2016-12-19T08:48:00.401Z,50.73
2016-12-19T08:49:00.703Z,50.83
2016-12-19T08:50:00.682Z,50.76
2016-12-19T08:51:00.666Z,50.95
2016-12-19T08:52:00.651Z,50.54
2016-12-19T08:53:00.638Z,50.95
2016-12-19T08:54:00.614Z,50.95
2016-12-19T08:55:00.599Z,50.85
2016-12-19T08:56:00.584Z,50.95
2016-12-19T08:57:00.250Z,51.34
2016-12-19T08:58:00.547Z,50.85
2016-12-19T08:59:00.533Z,50.57
2016-12-19T09:00:00.204Z,51.14
2016-12-19T09:01:00.504Z,51.82
2016-12-19T09:02:00.491Z,51.53
2016-12-19T09:03:00.472Z,51.14
2016-12-19T09:04:00.457Z,51.24
2016-12-19T09:05:00.433Z,51.72
2016-12-19T09:06:00.417Z,51.72
2016-12-19T09:07:00.404Z,51.14
2016-12-19T09:08:00.393Z,51.05
2016-12-19T09:09:00.369Z,51.14
2016-12-19T09:10:00.352Z,52.69
2016-12-19T09:11:00.333Z,52.97
2016-12-19T09:12:00.317Z,49.22
2016-12-19T09:12:59.982Z,47.29
2016-12-19T09:14:00.284Z,46.31
2016-12-19T09:15:00.255Z,45.73
2016-12-19T09:16:00.238Z,44.76
2016-12-19T09:17:00.221Z,43.8
2016-12-19T09:17:59.912Z,43.49
2016-12-19T09:19:00.178Z,43.68
2016-12-19T09:20:00.155Z,43.59
2016-12-19T09:21:00.137Z,43.68
2016-12-19T09:22:00.116Z,43.4
2016-12-19T09:23:00.095Z,43.2
2016-12-19T09:24:00.073Z,42.72
2016-12-19T09:24:59.738Z,42.05
2016-12-19T09:26:00.039Z,43.49
2016-12-19T09:27:00.014Z,44.05
2016-12-19T09:27:59.993Z,43.47
2016-12-19T09:28:59.974Z,43.84
2016-12-19T09:29:59.959Z,43.52
2016-12-19T09:30:59.929Z,43.7
2016-12-19T09:31:59.596Z,43.6
2016-12-19T09:32:59.891Z,44.46
2016-12-19T09:33:59.866Z,43.96
2016-12-19T09:34:59.850Z,44.06
2016-12-19T09:35:59.830Z,44.75
2016-12-19T09:36:59.802Z,44.96
2016-12-19T09:37:59.784Z,44.41
2016-12-19T09:38:59.768Z,45.37
2016-12-19T09:39:59.741Z,44.24
2016-12-19T09:40:59.404Z,44.91
2016-12-19T09:41:59.394Z,45.2
2016-12-19T09:42:59.685Z,44.72
2016-12-19T09:43:59.658Z,45.22
2016-12-19T09:44:59.635Z,45.32
2016-12-19T09:45:59.618Z,44.93
2016-12-19T09:46:59.596Z,44.65
2016-12-19T09:47:59.577Z,45.61
2016-12-19T09:48:59.564Z,45.51
2016-12-19T09:49:59.537Z,45.32
2016-12-19T09:50:59.515Z,45.32
2016-12-19T09:51:59.491Z,45.83
2016-12-19T09:52:59.473Z,46.4
2016-12-19T09:53:59.454Z,46.4
2016-12-19T09:54:59.430Z,45.63
2016-12-19T09:55:59.412Z,45.44
2016-12-19T09:56:59.389Z,45.83
2016-12-19T09:57:59.370Z,45.92
2016-12-19T09:58:59.355Z,45.92
2016-12-19T09:59:59.330Z,46.31
2016-12-19T10:00:59.311Z,47.19
2016-12-19T10:01:59.293Z,46.81
2016-12-19T10:02:59.270Z,46.33
2016-12-19T10:03:59.247Z,47.39
2016-12-19T10:04:59.226Z,46.62
